Time;durP1;ratioP1;P1;durP2;ratioP2;P2;SDS_P1;SDS_P2;PMS_P1;PMS_P2;Temp;Humidity;BMP_temperature;BMP_pressure;BME280_temperature;BME280_humidity;BME280_pressure;Samples;Min_cycle;Max_cycle;Signal;HPM_P1;HPM_P2
2023/11/23 00:01:44;;;;;;;10.77;3.05;;;;;;;10.99;100.00;101817.59;4994716;28;20022;-85
2023/11/23 00:04:09;;;;;;;7.13;2.88;;;;;;;10.97;100.00;101811.66;4994898;28;20054;-86
2023/11/23 00:06:35;;;;;;;6.15;2.75;;;;;;;11.02;100.00;101822.69;4994479;28;20034;-86
2023/11/23 00:09:00;;;;;;;8.65;3.58;;;;;;;11.02;100.00;101824.41;4995194;28;20066;-86
2023/11/23 00:11:25;;;;;;;9.90;2.60;;;;;;;11.02;100.00;101820.09;4992500;28;20030;-86
2023/11/23 00:13:51;;;;;;;5.15;2.05;;;;;;;10.99;100.00;101829.69;4994800;28;20034;-86
2023/11/23 00:16:17;;;;;;;12.38;3.10;;;;;;;10.98;100.00;101828.00;4994579;28;20046;-86
2023/11/23 00:18:43;;;;;;;7.45;2.20;;;;;;;10.97;100.00;101824.56;4994672;28;20030;-86
2023/11/23 00:21:08;;;;;;;7.03;2.45;;;;;;;10.99;100.00;101812.44;4993381;28;20031;-86
2023/11/23 00:23:34;;;;;;;7.72;2.70;;;;;;;10.98;100.00;101821.09;4993321;28;20034;-86
2023/11/23 00:25:59;;;;;;;10.23;2.22;;;;;;;11.05;100.00;101812.22;4994287;28;20034;-86
2023/11/23 00:28:24;;;;;;;11.45;2.92;;;;;;;11.05;100.00;101812.22;4994511;28;20025;-86
2023/11/23 00:30:50;;;;;;;9.80;2.67;;;;;;;10.99;100.00;101817.59;4994084;28;20369;-85
2023/11/23 00:33:15;;;;;;;7.18;3.17;;;;;;;11.03;100.00;101811.44;4993931;28;20116;-86
2023/11/23 00:35:41;;;;;;;15.18;3.47;;;;;;;11.04;100.00;101814.84;4993806;28;20066;-85
2023/11/23 00:38:11;;;;;;;7.68;2.70;;;;;;;11.03;100.00;101808.84;4994242;28;20174;-86
2023/11/23 00:40:37;;;;;;;9.00;2.65;;;;;;;11.00;100.00;101808.97;4994537;28;20050;-86
2023/11/23 00:43:02;;;;;;;7.47;2.50;;;;;;;11.07;100.00;101805.25;4994085;28;20030;-86
2023/11/23 00:45:27;;;;;;;6.35;2.20;;;;;;;11.01;100.00;101794.31;4994268;28;20026;-86
2023/11/23 00:47:53;;;;;;;3.88;2.35;;;;;;;11.04;100.00;101792.44;4994104;28;20468;-86
2023/11/23 00:50:19;;;;;;;11.23;2.70;;;;;;;11.09;100.00;101785.34;4992016;28;20034;-86
2023/11/23 00:52:45;;;;;;;8.95;2.67;;;;;;;11.05;100.00;101791.56;4993532;28;20030;-86
2023/11/23 00:55:10;;;;;;;8.68;2.70;;;;;;;10.97;100.00;101780.66;4993978;28;20027;-86
2023/11/23 00:57:36;;;;;;;12.70;2.97;;;;;;;10.98;100.00;101792.69;4992667;28;20030;-86
2023/11/23 01:00:06;;;;;;;13.20;3.65;;;;;;;11.06;100.00;101797.56;4993969;28;20034;-86
2023/11/23 01:02:31;;;;;;;6.38;2.78;;;;;;;11.03;100.00;101802.84;4993449;28;20053;-86
2023/11/23 01:04:57;;;;;;;7.63;2.35;;;;;;;11.01;100.00;101795.13;4992381;28;20153;-86
2023/11/23 01:07:23;;;;;;;9.73;2.78;;;;;;;11.02;100.00;101791.69;4993489;28;20030;-86
2023/11/23 01:09:48;;;;;;;9.23;3.60;;;;;;;10.97;100.00;101793.56;4993910;28;20037;-86
2023/11/23 01:12:14;;;;;;;9.38;3.72;;;;;;;10.99;100.00;101789.19;4993236;28;20100;-86
2023/11/23 01:14:39;;;;;;;12.18;3.45;;;;;;;10.97;100.00;101793.56;4993851;28;20062;-85
2023/11/23 01:17:05;;;;;;;13.93;3.42;;;;;;;11.06;100.00;101788.06;4991268;28;20048;-86
2023/11/23 01:19:30;;;;;;;7.32;3.55;;;;;;;11.09;100.00;101779.34;4993747;28;20049;-85
2023/11/23 01:21:56;;;;;;;10.52;3.97;;;;;;;11.11;100.00;101778.38;4993222;28;20045;-86
2023/11/23 01:24:21;;;;;;;9.38;3.00;;;;;;;11.06;100.00;101767.38;4993592;28;20026;-86
2023/11/23 01:26:46;;;;;;;9.15;3.08;;;;;;;11.03;100.00;101772.69;4993205;28;20026;-85
2023/11/23 01:29:12;;;;;;;4.25;2.65;;;;;;;11.10;100.00;101771.53;4993485;28;20384;-86
2023/11/23 01:31:38;;;;;;;9.45;2.45;;;;;;;11.12;100.00;101774.09;4992504;28;20030;-86
2023/11/23 01:34:03;;;;;;;5.63;2.10;;;;;;;11.14;100.00;101769.66;4993676;28;20358;-85
2023/11/23 01:36:29;;;;;;;3.55;1.55;;;;;;;11.20;100.00;101776.38;4992610;28;20030;-85
2023/11/23 01:38:54;;;;;;;7.68;2.03;;;;;;;11.13;100.00;101774.00;4993193;28;20034;-88
2023/11/23 01:41:20;;;;;;;4.80;1.65;;;;;;;11.10;100.00;101776.72;4992945;28;20392;-85
2023/11/23 01:43:46;;;;;;;4.60;1.85;;;;;;;11.09;100.00;101777.59;4992298;28;20018;-85
2023/11/23 01:46:12;;;;;;;9.57;2.20;;;;;;;11.12;100.00;101782.66;4992559;28;20064;-86
2023/11/23 01:48:39;;;;;;;6.32;1.50;;;;;;;11.20;100.00;101784.13;4993354;28;20030;-88
2023/11/23 01:51:05;;;;;;;12.38;2.00;;;;;;;11.17;100.00;101785.09;4992622;28;20376;-85
2023/11/23 01:53:31;;;;;;;4.50;2.08;;;;;;;11.13;100.00;101780.91;4993139;28;20271;-85
2023/11/23 01:56:00;;;;;;;7.95;2.47;;;;;;;11.10;100.00;101787.06;4992723;28;20272;-85
2023/11/23 01:58:26;;;;;;;7.72;2.45;;;;;;;11.17;100.00;101789.38;4991701;28;20034;-85
2023/11/23 02:00:52;;;;;;;7.15;2.83;;;;;;;11.13;100.00;101793.84;4992728;28;20507;-85
2023/11/23 02:03:21;;;;;;;6.15;3.13;;;;;;;11.14;100.00;101791.22;4992939;28;20041;-85
2023/11/23 02:05:46;;;;;;;6.43;2.28;;;;;;;11.07;100.00;101794.06;4993021;28;20030;-86
2023/11/23 02:08:12;;;;;;;4.55;2.85;;;;;;;11.03;100.00;101793.34;4992041;28;20091;-85
2023/11/23 02:10:37;;;;;;;4.38;2.70;;;;;;;10.99;100.00;101796.94;4992763;28;20027;-88
2023/11/23 02:13:05;;;;;;;7.47;2.55;;;;;;;10.99;100.00;101791.78;4992962;28;20469;-86
2023/11/23 02:15:30;;;;;;;7.85;2.63;;;;;;;10.96;100.00;101786.72;4992875;28;20022;-85
2023/11/23 02:18:03;;;;;;;8.18;2.50;;;;;;;10.92;100.00;101800.66;4992690;28;20505;-86
2023/11/23 02:20:29;;;;;;;4.80;2.17;;;;;;;10.91;100.00;101791.22;4992374;28;20034;-85
2023/11/23 02:22:55;;;;;;;6.68;2.40;;;;;;;10.83;100.00;101801.00;4990519;28;20366;-86
2023/11/23 02:25:20;;;;;;;13.50;3.13;;;;;;;10.86;100.00;101806.06;4991941;28;20030;-85
2023/11/23 02:27:47;;;;;;;5.13;2.50;;;;;;;10.90;100.00;101792.13;4992819;28;20027;-86
2023/11/23 02:30:13;;;;;;;5.25;2.63;;;;;;;10.84;100.00;101810.44;4992286;28;20440;-85
2023/11/23 02:32:38;;;;;;;7.53;2.88;;;;;;;10.88;100.00;101804.25;4990762;28;20081;-86
2023/11/23 02:35:04;;;;;;;7.97;2.70;;;;;;;10.88;100.00;101794.75;4991762;28;20125;-85
2023/11/23 02:37:30;;;;;;;6.78;2.72;;;;;;;10.98;100.00;101797.84;4991692;28;20062;-86
2023/11/23 02:39:55;;;;;;;7.57;2.75;;;;;;;10.97;100.00;101800.47;4992136;28;20034;-88
2023/11/23 02:42:21;;;;;;;8.60;3.30;;;;;;;11.01;100.00;101791.72;4992652;28;20105;-85
2023/11/23 02:44:46;;;;;;;10.38;2.60;;;;;;;11.00;100.00;101795.19;4991190;28;20026;-86
2023/11/23 02:47:11;;;;;;;6.55;2.40;;;;;;;10.99;100.00;101785.75;4992559;28;20112;-86
2023/11/23 02:49:37;;;;;;;8.00;2.40;;;;;;;11.04;100.00;101791.59;4992258;28;20032;-85
2023/11/23 02:52:02;;;;;;;6.28;2.35;;;;;;;11.09;100.00;101797.44;4992443;28;20066;-86
2023/11/23 02:54:28;;;;;;;5.80;2.33;;;;;;;11.06;100.00;101793.22;4991561;28;20019;-86
2023/11/23 02:56:53;;;;;;;5.30;1.90;;;;;;;11.00;100.00;101790.03;4992394;28;20030;-85
2023/11/23 02:59:19;;;;;;;6.20;2.03;;;;;;;11.00;100.00;101782.28;4990932;28;20034;-86
2023/11/23 03:01:44;;;;;;;3.38;1.80;;;;;;;11.01;100.00;101781.38;4992377;28;20030;-86
2023/11/23 03:04:10;;;;;;;4.10;2.42;;;;;;;11.02;100.00;101776.19;4990021;28;20053;-86
2023/11/23 03:06:35;;;;;;;7.10;2.78;;;;;;;10.96;100.00;101776.41;4991080;28;20477;-86
2023/11/23 03:09:00;;;;;;;5.35;3.17;;;;;;;10.99;100.00;101778.84;4992118;28;20046;-86
2023/11/23 03:11:26;;;;;;;4.82;2.50;;;;;;;10.99;100.00;101776.28;4992233;28;20022;-86
2023/11/23 03:13:57;;;;;;;8.80;3.80;;;;;;;11.00;100.00;101777.97;4992292;28;20038;-86
2023/11/23 03:16:24;;;;;;;7.78;3.60;;;;;;;10.91;100.00;101770.56;4992501;28;20122;-88
2023/11/23 03:18:50;;;;;;;8.10;4.25;;;;;;;10.91;100.00;101763.66;4992072;28;20365;-88
2023/11/23 03:21:15;;;;;;;8.40;4.03;;;;;;;10.81;100.00;101761.47;4991847;28;20033;-86
2023/11/23 03:23:42;;;;;;;10.13;4.00;;;;;;;10.73;100.00;101760.91;4995930;28;20488;-85
2023/11/23 03:26:07;;;;;;;5.78;3.20;;;;;;;10.70;100.00;101760.13;4994721;28;20034;-86
2023/11/23 03:28:32;;;;;;;9.07;3.50;;;;;;;10.73;100.00;101763.47;4994682;28;20027;-86
2023/11/23 03:30:58;;;;;;;7.30;3.70;;;;;;;10.71;100.00;101754.06;4995748;28;20022;-86
2023/11/23 03:33:24;;;;;;;9.75;3.40;;;;;;;10.63;100.00;101753.50;4994754;28;20037;-85
2023/11/23 03:35:50;;;;;;;10.63;3.72;;;;;;;10.56;100.00;101762.38;4995356;28;20048;-86
2023/11/23 03:38:16;;;;;;;4.25;2.72;;;;;;;10.65;100.00;101754.28;4995602;28;20030;-86
2023/11/23 03:40:42;;;;;;;5.22;2.75;;;;;;;10.63;100.00;101755.22;4995665;28;20018;-88
2023/11/23 03:43:07;;;;;;;8.73;3.08;;;;;;;10.56;100.00;101752.06;4995662;28;20030;-88
2023/11/23 03:45:33;;;;;;;6.57;2.70;;;;;;;10.66;100.00;101753.41;4995331;28;20966;-88
2023/11/23 03:47:59;;;;;;;7.93;3.13;;;;;;;10.56;100.00;101754.63;4993240;28;20019;-87
2023/11/23 03:50:24;;;;;;;8.73;2.50;;;;;;;10.55;100.00;101758.09;4995137;28;20038;-87
2023/11/23 03:52:50;;;;;;;4.88;2.85;;;;;;;10.69;100.00;101757.59;4995589;28;20030;-88
2023/11/23 03:55:16;;;;;;;8.13;2.50;;;;;;;10.69;100.00;101747.28;4995314;28;20449;-88
2023/11/23 03:57:43;;;;;;;6.20;2.45;;;;;;;10.64;100.00;101760.34;4995754;28;20057;-88
2023/11/23 04:00:08;;;;;;;4.43;2.50;;;;;;;10.68;100.00;101756.75;4995237;28;20198;-88
2023/11/23 04:02:34;;;;;;;4.32;2.05;;;;;;;10.64;100.00;101744.84;4992867;28;20238;-88
2023/11/23 04:04:59;;;;;;;8.02;2.60;;;;;;;10.64;100.00;101755.19;4994759;28;20094;-88
2023/11/23 04:07:24;;;;;;;7.32;2.33;;;;;;;10.71;100.00;101755.81;4994864;28;20018;-88
2023/11/23 04:09:50;;;;;;;3.08;2.20;;;;;;;10.73;100.00;101753.16;4994969;28;20030;-88
2023/11/23 04:12:16;;;;;;;7.32;2.40;;;;;;;10.76;100.00;101745.31;4994873;28;20031;-88
2023/11/23 04:14:41;;;;;;;3.83;2.30;;;;;;;10.82;100.00;101757.97;4994695;28;20034;-88
2023/11/23 04:17:07;;;;;;;5.65;2.55;;;;;;;10.74;100.00;101757.44;4994373;28;20157;-87
2023/11/23 04:19:32;;;;;;;8.38;2.35;;;;;;;10.79;100.00;101750.34;4994843;28;20424;-88
2023/11/23 04:21:59;;;;;;;4.95;2.15;;;;;;;10.82;100.00;101743.31;4995267;28;20031;-87
2023/11/23 04:24:25;;;;;;;3.95;2.53;;;;;;;10.73;100.00;101755.72;4994589;28;20037;-88
2023/11/23 04:26:52;;;;;;;5.60;3.22;;;;;;;10.76;100.00;101748.72;4994768;28;20022;-87
2023/11/23 04:29:18;;;;;;;7.03;2.88;;;;;;;10.77;100.00;101760.72;4993562;28;20038;-87
2023/11/23 04:31:43;;;;;;;2.95;2.35;;;;;;;10.73;100.00;101755.72;4993678;28;20380;-87
2023/11/23 04:34:09;;;;;;;7.85;3.15;;;;;;;10.81;100.00;101761.47;4993423;28;20507;-88
2023/11/23 04:36:36;;;;;;;6.32;3.10;;;;;;;10.80;100.00;101759.78;4994425;28;20451;-88
2023/11/23 04:39:02;;;;;;;6.93;3.40;;;;;;;10.67;100.00;101760.22;4994396;28;20033;-88
2023/11/23 04:41:28;;;;;;;3.92;2.80;;;;;;;10.64;100.00;101752.59;4994528;28;20026;-88
2023/11/23 04:43:53;;;;;;;7.57;3.60;;;;;;;10.65;100.00;101758.59;4994282;28;20033;-88
2023/11/23 04:46:18;;;;;;;7.07;3.83;;;;;;;10.70;100.00;101747.22;4994346;28;20023;-88
2023/11/23 04:48:44;;;;;;;7.85;3.67;;;;;;;10.64;100.00;101757.78;4992225;28;20255;-88
2023/11/23 04:51:09;;;;;;;9.27;4.65;;;;;;;10.63;100.00;101753.50;4993871;28;20384;-88
2023/11/23 04:53:34;;;;;;;9.27;4.88;;;;;;;10.61;100.00;101757.88;4992875;28;20420;-88
2023/11/23 04:55:59;;;;;;;7.03;5.07;;;;;;;10.52;100.00;101755.63;4994365;28;20511;-88
2023/11/23 04:58:26;;;;;;;7.40;5.90;;;;;;;10.54;100.00;101764.16;4993123;28;20031;-88
2023/11/23 05:00:51;;;;;;;7.35;5.57;;;;;;;10.51;100.00;101759.13;4993994;28;20038;-88
2023/11/23 05:03:16;;;;;;;9.65;6.07;;;;;;;10.45;100.00;101764.50;4994014;28;20028;-86
2023/11/23 05:05:42;;;;;;;11.30;6.47;;;;;;;10.39;100.00;101770.72;4993898;28;20526;-88
2023/11/23 05:08:09;;;;;;;9.63;7.38;;;;;;;10.21;100.00;101759.25;4992776;28;20948;-86
2023/11/23 05:10:34;;;;;;;10.80;7.03;;;;;;;10.25;100.00;101758.25;4992797;28;20281;-88
2023/11/23 05:13:00;;;;;;;13.65;6.80;;;;;;;10.20;100.00;101752.41;4992836;28;20523;-88
2023/11/23 05:15:25;;;;;;;12.82;7.32;;;;;;;10.11;100.00;101750.16;4993577;28;20092;-88
2023/11/23 05:17:50;;;;;;;11.00;8.00;;;;;;;10.01;100.00;101743.63;4992501;28;20065;-88
2023/11/23 05:20:16;;;;;;;12.02;8.07;;;;;;;10.00;100.00;101749.69;4992534;28;20336;-88
2023/11/23 05:22:43;;;;;;;10.75;7.18;;;;;;;9.99;100.00;101758.31;4992200;28;20451;-86
2023/11/23 05:25:08;;;;;;;11.43;6.85;;;;;;;9.97;100.00;101753.22;4993535;28;20053;-88
2023/11/23 05:27:33;;;;;;;8.80;5.63;;;;;;;9.84;100.00;101751.94;4993743;28;20035;-86
2023/11/23 05:29:59;;;;;;;14.20;6.68;;;;;;;9.81;100.00;101750.31;4993363;28;20029;-87
2023/11/23 05:32:24;;;;;;;10.38;6.50;;;;;;;9.86;100.00;101751.00;4992279;28;20030;-88
2023/11/23 05:34:50;;;;;;;7.97;5.35;;;;;;;9.80;100.00;101750.34;4992406;28;20052;-88
2023/11/23 05:37:15;;;;;;;13.05;5.13;;;;;;;9.78;100.00;101739.25;4993337;28;20062;-88
2023/11/23 05:39:41;;;;;;;7.50;5.07;;;;;;;9.77;100.00;101737.56;4993323;28;20026;-88
2023/11/23 05:42:06;;;;;;;12.23;4.85;;;;;;;9.75;100.00;101736.75;4993304;28;20037;-88
2023/11/23 05:44:32;;;;;;;11.00;4.63;;;;;;;9.77;100.00;101737.56;4992845;28;20030;-88
2023/11/23 05:46:57;;;;;;;7.57;4.05;;;;;;;9.80;100.00;101740.91;4991896;28;20031;-88
2023/11/23 05:49:22;;;;;;;6.35;4.15;;;;;;;9.78;100.00;101737.53;4991888;28;20022;-88
2023/11/23 05:51:48;;;;;;;11.40;5.60;;;;;;;9.76;100.00;101743.63;4993266;28;20033;-88
2023/11/23 05:54:14;;;;;;;11.75;6.30;;;;;;;9.75;100.00;101742.75;4993051;28;20036;-88
2023/11/23 05:56:40;;;;;;;7.68;6.28;;;;;;;9.73;100.00;101749.72;4993002;28;20469;-88
2023/11/23 05:59:06;;;;;;;11.02;6.32;;;;;;;9.70;100.00;101744.63;5007880;28;20045;-87
2023/11/23 06:01:31;;;;;;;11.98;7.03;;;;;;;9.70;100.00;101739.47;4991671;28;20030;-88
2023/11/23 06:03:56;;;;;;;9.73;6.22;;;;;;;9.69;100.00;101737.81;4991774;28;20030;-88
2023/11/23 06:06:23;;;;;;;9.45;6.28;;;;;;;9.57;100.00;101733.91;4993046;28;20041;-88
2023/11/23 06:08:49;;;;;;;9.00;6.25;;;;;;;9.69;100.00;101735.25;4992964;28;20057;-88
2023/11/23 06:11:16;;;;;;;8.40;6.22;;;;;;;9.68;100.00;101724.97;4992643;28;20453;-88
2023/11/23 06:13:43;;;;;;;11.40;5.85;;;;;;;9.64;100.00;101734.53;4992670;28;20018;-88
2023/11/23 06:16:09;;;;;;;10.85;4.85;;;;;;;9.71;100.00;101738.63;4993135;28;20062;-88
2023/11/23 06:18:35;;;;;;;9.55;5.22;;;;;;;9.72;100.00;101737.72;4991621;28;20034;-88
2023/11/23 06:21:00;;;;;;;7.50;4.88;;;;;;;9.78;100.00;101742.69;4992722;28;20504;-88
2023/11/23 06:23:26;;;;;;;12.15;5.00;;;;;;;9.71;100.00;101741.19;4992510;28;20033;-88
2023/11/23 06:25:51;;;;;;;9.68;4.47;;;;;;;9.70;100.00;101733.50;4992680;28;20026;-88
2023/11/23 06:28:17;;;;;;;8.60;3.70;;;;;;;9.70;100.00;101734.31;4991331;28;20030;-88
2023/11/23 06:30:44;;;;;;;10.13;3.80;;;;;;;9.58;100.00;101733.03;4992520;28;20026;-88
2023/11/23 06:33:10;;;;;;;13.60;4.30;;;;;;;9.74;100.00;101740.25;4990344;28;20065;-87
2023/11/23 06:35:35;;;;;;;10.43;4.18;;;;;;;9.74;100.00;101738.50;4990952;28;20103;-88
2023/11/23 06:38:00;;;;;;;13.38;4.25;;;;;;;9.63;100.00;101743.16;4992372;28;20037;-88
2023/11/23 06:40:28;;;;;;;10.85;4.47;;;;;;;9.67;100.00;101742.19;4992437;28;20520;-88
2023/11/23 06:42:53;;;;;;;6.63;3.83;;;;;;;9.67;100.00;101734.44;4992151;28;20026;-87
2023/11/23 06:45:19;;;;;;;10.32;4.13;;;;;;;9.77;100.00;101735.81;4971802;28;20078;-88
2023/11/23 06:47:44;;;;;;;10.05;4.07;;;;;;;9.75;100.00;101732.44;4974312;28;20595;-89
2023/11/23 06:50:10;;;;;;;8.23;4.43;;;;;;;9.76;100.00;101739.31;4992152;28;20540;-88
2023/11/23 06:52:35;;;;;;;10.75;4.45;;;;;;;9.79;100.00;101718.56;4989267;28;20110;-88
2023/11/23 06:55:01;;;;;;;8.32;4.10;;;;;;;9.82;100.00;101727.94;4991082;28;20053;-88
2023/11/23 06:57:27;;;;;;;6.93;3.60;;;;;;;9.88;100.00;101729.47;4992700;28;20484;-90
2023/11/23 06:59:53;;;;;;;6.28;3.20;;;;;;;9.79;100.00;101734.03;4995701;28;20045;-89
2023/11/23 07:02:18;;;;;;;8.88;4.55;;;;;;;9.79;100.00;101734.03;4995527;28;20026;-88
2023/11/23 07:04:43;;;;;;;9.23;3.88;;;;;;;9.89;100.00;101726.00;4996126;28;20510;-88
2023/11/23 07:07:09;;;;;;;9.52;3.92;;;;;;;9.83;100.00;101727.88;4992377;28;20543;-89
2023/11/23 07:09:35;;;;;;;7.10;3.45;;;;;;;9.98;100.00;101733.44;4994979;28;20038;-89
2023/11/23 07:12:01;;;;;;;7.60;3.67;;;;;;;10.05;100.00;101729.75;4995692;28;20081;-89
2023/11/23 07:14:27;;;;;;;7.38;4.22;;;;;;;10.03;100.00;101716.06;4995401;28;20041;-90
2023/11/23 07:16:52;;;;;;;8.52;4.10;;;;;;;10.07;100.00;101723.63;4994354;28;20029;-91
2023/11/23 07:19:21;;;;;;;10.05;4.20;;;;;;;10.03;100.00;101721.22;4990679;28;20472;-90
2023/11/23 07:21:49;;;;;;;6.35;4.63;;;;;;;10.10;100.00;101721.84;4993359;28;20030;-91
2023/11/23 07:24:15;;;;;;;10.10;4.60;;;;;;;10.10;100.00;101727.00;4991896;28;20030;-91
2023/11/23 07:26:40;;;;;;;5.60;3.45;;;;;;;10.11;100.00;101711.44;4994875;28;20393;-91
2023/11/23 07:29:06;;;;;;;13.82;4.00;;;;;;;10.05;100.00;101711.69;4994590;28;20065;-91
2023/11/23 07:31:31;;;;;;;10.93;3.70;;;;;;;10.14;100.00;101710.50;4995753;28;20061;-90
2023/11/23 07:33:59;;;;;;;6.45;3.97;;;;;;;10.15;100.00;101709.63;4994342;28;20081;-91
2023/11/23 07:36:26;;;;;;;9.05;3.15;;;;;;;10.25;100.00;101714.41;4994420;28;20061;-90
2023/11/23 07:38:51;;;;;;;4.97;3.08;;;;;;;10.20;100.00;101716.31;4995742;28;20026;-91
2023/11/23 07:41:18;;;;;;;10.90;3.08;;;;;;;10.22;100.00;101711.94;4995577;28;20515;-91
2023/11/23 07:43:44;;;;;;;4.40;3.00;;;;;;;10.12;100.00;101710.56;4994414;28;20030;-90
2023/11/23 07:46:11;;;;;;;5.63;2.55;;;;;;;10.15;100.00;101702.72;4995545;28;20023;-90
2023/11/23 07:48:36;;;;;;;9.60;2.70;;;;;;;10.08;100.00;101698.69;4995279;28;20027;-91
2023/11/23 07:51:02;;;;;;;5.50;2.72;;;;;;;10.18;100.00;101709.50;4994200;28;20028;-90
2023/11/23 07:53:30;;;;;;;6.72;2.63;;;;;;;10.00;100.00;101696.38;4991453;28;20133;-91
2023/11/23 07:55:56;;;;;;;4.82;2.33;;;;;;;9.98;100.00;101710.22;4990535;28;20114;-90
2023/11/23 07:58:23;;;;;;;4.53;2.20;;;;;;;9.99;100.00;101702.41;4991820;28;20031;-90
2023/11/23 08:00:48;;;;;;;13.98;3.22;;;;;;;10.00;100.00;101700.69;4993513;28;20023;-91
2023/11/23 08:03:13;;;;;;;2.80;2.10;;;;;;;9.97;100.00;101705.94;4993219;28;20155;-90
2023/11/23 08:05:39;;;;;;;8.18;2.38;;;;;;;9.92;100.00;101708.66;4991862;28;20092;-90
2023/11/23 08:08:04;;;;;;;6.38;2.10;;;;;;;9.91;100.00;101713.91;4993474;28;20065;-90
2023/11/23 08:10:30;;;;;;;4.57;1.60;;;;;;;10.02;100.00;101720.38;4993747;28;20037;-89
2023/11/23 08:12:55;;;;;;;6.25;1.50;;;;;;;10.07;100.00;101733.09;4993808;28;20030;-89
2023/11/23 08:15:21;;;;;;;7.50;1.90;;;;;;;10.11;100.00;101750.16;4992604;28;20037;-89
2023/11/23 08:17:46;;;;;;;7.20;1.92;;;;;;;9.96;100.00;101746.38;4993726;28;20647;-89
2023/11/23 08:20:13;;;;;;;5.55;1.70;;;;;;;10.09;100.00;101744.19;4993848;28;20049;-89
2023/11/23 08:22:39;;;;;;;6.97;2.22;;;;;;;10.17;100.00;101749.97;4993794;28;20034;-91
2023/11/23 08:25:05;;;;;;;10.38;1.50;;;;;;;10.19;100.00;101737.84;4993816;28;20029;-90
2023/11/23 08:27:31;;;;;;;6.28;1.80;;;;;;;10.24;100.00;101735.06;4991244;28;20381;-89
2023/11/23 08:29:56;;;;;;;7.57;1.90;;;;;;;10.34;100.00;101730.47;4992438;28;20425;-89
2023/11/23 08:32:22;;;;;;;6.50;1.70;;;;;;;10.38;100.00;101732.06;4993592;28;20030;-89
2023/11/23 08:34:51;;;;;;;5.75;1.25;;;;;;;10.44;100.00;101722.34;4993992;28;20034;-89
2023/11/23 08:37:16;;;;;;;4.90;1.08;;;;;;;10.48;100.00;101725.66;4993453;28;20022;-89
2023/11/23 08:39:42;;;;;;;7.20;1.30;;;;;;;10.54;100.00;101728.03;4993201;28;20492;-89
2023/11/23 08:42:10;;;;;;;7.03;1.25;;;;;;;10.47;100.00;101716.25;4993163;28;20038;-90
2023/11/23 08:44:35;;;;;;;5.65;1.17;;;;;;;10.58;100.00;101724.41;4992287;28;20023;-90
2023/11/23 08:47:01;;;;;;;6.30;1.27;;;;;;;10.60;100.00;101727.78;4993350;28;20126;-90
2023/11/23 08:49:26;;;;;;;8.75;1.17;;;;;;;10.69;100.00;101722.28;4953573;28;1159294;-89
2023/11/23 08:51:52;;;;;;;4.40;1.08;;;;;;;10.60;100.00;101725.19;4994286;28;20034;-90
2023/11/23 08:54:18;;;;;;;4.20;0.98;;;;;;;10.65;100.00;101731.03;4994001;28;20080;-89
2023/11/23 08:56:46;;;;;;;5.28;0.90;;;;;;;10.70;100.00;101736.91;4992962;28;20022;-89
2023/11/23 08:59:12;;;;;;;4.93;0.80;;;;;;;10.74;100.00;101737.59;4993501;28;20392;-89
2023/11/23 09:01:37;;;;;;;7.72;1.05;;;;;;;10.68;100.00;101738.69;4993998;28;20030;-90
2023/11/23 09:04:04;;;;;;;3.97;0.73;;;;;;;10.66;100.00;101742.22;4991999;28;20037;-90
2023/11/23 09:06:29;;;;;;;4.45;1.10;;;;;;;10.70;100.00;101734.31;4993840;28;20026;-90
2023/11/23 09:08:54;;;;;;;6.43;1.52;;;;;;;10.74;100.00;101740.19;4992479;28;20037;-91
2023/11/23 09:11:20;;;;;;;3.55;1.25;;;;;;;10.73;100.00;101748.84;4992133;28;20053;-92
2023/11/23 09:13:45;;;;;;;9.30;1.27;;;;;;;10.73;100.00;101768.66;4991493;28;20424;-87
2023/11/23 09:16:13;;;;;;;6.30;1.02;;;;;;;10.78;100.00;101757.28;4993285;28;20034;-89
2023/11/23 09:18:39;;;;;;;6.85;1.08;;;;;;;10.70;100.00;101760.13;4990157;28;20038;-90
2023/11/23 09:21:05;;;;;;;5.38;1.02;;;;;;;10.81;100.00;101761.47;4993381;28;20084;-90
2023/11/23 09:23:30;;;;;;;6.53;1.30;;;;;;;10.88;100.00;101763.75;4993824;28;20014;-90
2023/11/23 09:25:56;;;;;;;8.10;1.73;;;;;;;10.85;100.00;101784.56;4993610;28;20030;-90
2023/11/23 09:28:22;;;;;;;13.00;1.83;;;;;;;10.99;100.00;101776.28;4992619;28;20022;-90
2023/11/23 09:30:48;;;;;;;6.68;1.15;;;;;;;10.96;100.00;101789.31;4993497;28;20065;-90
2023/11/23 09:33:13;;;;;;;8.05;1.40;;;;;;;11.01;100.00;101779.63;4993476;28;20023;-90
2023/11/23 09:35:39;;;;;;;9.65;1.63;;;;;;;11.03;100.00;101766.69;4993526;28;20069;-89
2023/11/23 09:38:06;;;;;;;7.85;1.40;;;;;;;11.07;100.00;101789.75;4991352;28;20432;-89
2023/11/23 09:40:32;;;;;;;8.20;1.60;;;;;;;10.97;100.00;101783.22;4993294;28;20121;-89
2023/11/23 09:42:57;;;;;;;7.43;1.67;;;;;;;11.08;100.00;101799.19;4993714;28;20054;-89
2023/11/23 09:45:24;;;;;;;10.93;2.03;;;;;;;11.08;100.00;101795.75;4993125;28;20511;-89
2023/11/23 09:47:51;;;;;;;4.65;1.38;;;;;;;11.18;100.00;101804.84;4993189;28;20424;-89
2023/11/23 09:50:19;;;;;;;15.05;1.80;;;;;;;10.96;100.00;101807.38;4992906;28;20053;-89
2023/11/23 09:52:46;;;;;;;12.55;1.65;;;;;;;11.01;100.00;101820.97;4991001;28;20484;-90
2023/11/23 09:55:16;;;;;;;10.55;1.55;;;;;;;10.97;100.00;101829.72;4992882;28;20053;-90
2023/11/23 09:57:44;;;;;;;6.85;1.80;;;;;;;10.89;100.00;101826.59;4993070;28;20094;-89
2023/11/23 10:00:13;;;;;;;7.13;1.70;;;;;;;10.92;100.00;101816.16;4993040;28;20424;-90
2023/11/23 10:02:41;;;;;;;5.15;2.03;;;;;;;10.79;100.00;101825.25;4992702;28;20027;-89
2023/11/23 10:05:13;;;;;;;7.32;1.73;;;;;;;10.84;100.00;101823.34;4992872;28;20026;-89
2023/11/23 10:07:40;;;;;;;9.20;2.03;;;;;;;10.85;100.00;101831.03;4990642;28;20081;-89
2023/11/23 10:10:06;;;;;;;9.00;2.10;;;;;;;10.89;100.00;101836.94;4992797;28;20113;-89
2023/11/23 10:12:34;;;;;;;11.63;2.42;;;;;;;10.96;100.00;101853.06;4992953;28;20080;-89
2023/11/23 10:15:00;;;;;;;13.35;2.13;;;;;;;10.91;100.00;101841.13;4992488;28;20023;-90
2023/11/23 10:17:25;;;;;;;10.48;2.53;;;;;;;10.97;100.00;101834.06;4991427;28;20026;-89
2023/11/23 10:19:50;;;;;;;10.18;1.80;;;;;;;11.02;100.00;101835.59;4992648;28;20077;-89
2023/11/23 10:22:16;;;;;;;9.35;2.35;;;;;;;11.05;100.00;101826.88;4990176;28;20053;-89
2023/11/23 10:24:48;;;;;;;10.80;3.35;;;;;;;11.01;100.00;101820.97;4992300;28;20014;-90
2023/11/23 10:27:16;;;;;;;9.57;3.72;;;;;;;11.04;100.00;101820.03;4992858;28;20030;-90
2023/11/23 10:29:41;;;;;;;12.57;4.22;;;;;;;11.01;100.00;101820.97;4992537;28;20093;-89
2023/11/23 10:32:09;;;;;;;10.93;4.22;;;;;;;11.08;100.00;101817.28;4992473;28;20203;-89
2023/11/23 10:34:40;;;;;;;10.43;4.53;;;;;;;11.24;100.00;101816.69;4992480;28;20085;-89
2023/11/23 10:37:05;;;;;;;7.07;3.77;;;;;;;11.28;100.00;101808.75;4991483;28;20054;-89
2023/11/23 10:39:31;;;;;;;11.73;4.68;;;;;;;11.25;100.00;101808.03;4991204;28;20068;-90
2023/11/23 10:41:59;;;;;;;11.93;3.92;;;;;;;11.54;100.00;101793.97;4992240;28;20033;-87
2023/11/23 10:44:28;;;;;;;10.93;4.50;;;;;;;11.80;100.00;101779.97;4992465;28;20029;-90
2023/11/23 10:46:58;;;;;;;14.20;4.72;;;;;;;12.87;100.00;101792.66;4990970;28;20384;-90
2023/11/23 10:49:26;;;;;;;13.50;5.55;;;;;;;14.39;100.00;101780.13;4990964;28;20030;-90
2023/11/23 10:51:53;;;;;;;10.60;5.05;;;;;;;14.96;97.96;101784.94;4992370;28;20027;-90
2023/11/23 10:54:19;;;;;;;7.50;4.10;;;;;;;15.55;92.97;101782.53;4991038;28;20026;-90
2023/11/23 10:56:45;;;;;;;8.18;4.35;;;;;;;15.15;93.29;101797.78;4989853;28;20037;-90
2023/11/23 10:59:20;;;;;;;14.45;5.03;;;;;;;13.97;100.00;101791.75;4991133;28;20031;-87
2023/11/23 11:01:47;;;;;;;10.20;4.00;;;;;;;13.71;100.00;101793.09;4989261;28;20096;-87
2023/11/23 11:04:13;;;;;;;9.32;4.15;;;;;;;13.35;100.00;101780.13;4988650;28;20037;-87
2023/11/23 11:06:39;;;;;;;9.48;3.72;;;;;;;13.26;100.00;101779.63;4992274;28;20026;-87
2023/11/23 11:09:19;;;;;;;10.50;4.05;;;;;;;12.84;100.00;101765.13;4992199;28;20457;-87
2023/11/23 11:11:53;;;;;;;8.05;2.95;;;;;;;12.66;100.00;101762.56;4992170;28;20481;-90